sensor_id;sensor_type;location;lat;lon;timestamp;P1;durP1;ratioP1;P2;durP2;ratioP2
25129;SDS011;13308;50.860;13.664;2022-12-05T06:55:53;11.05;;;5.53;;
25129;SDS011;13308;50.860;13.664;2022-12-05T06:58:20;12.15;;;6.97;;
25129;SDS011;13308;50.860;13.664;2022-12-05T07:00:45;8.00;;;6.03;;
25129;SDS011;13308;50.860;13.664;2022-12-05T07:03:29;11.45;;;6.45;;
25129;SDS011;13308;50.860;13.664;2022-12-05T07:05:54;10.20;;;6.50;;
25129;SDS011;13308;50.860;13.664;2022-12-05T07:08:20;10.65;;;6.63;;
25129;SDS011;13308;50.860;13.664;2022-12-05T07:10:51;9.05;;;6.50;;
25129;SDS011;13308;50.860;13.664;2022-12-05T07:13:18;9.38;;;6.88;;
25129;SDS011;13308;50.860;13.664;2022-12-05T07:15:45;9.35;;;6.93;;
25129;SDS011;13308;50.860;13.664;2022-12-05T07:18:11;7.95;;;5.63;;
25129;SDS011;13308;50.860;13.664;2022-12-05T07:20:37;8.13;;;5.95;;
25129;SDS011;13308;50.860;13.664;2022-12-05T07:23:03;8.98;;;6.25;;
25129;SDS011;13308;50.860;13.664;2022-12-05T07:25:28;10.65;;;6.32;;
25129;SDS011;13308;50.860;13.664;2022-12-05T07:27:53;8.45;;;6.38;;
25129;SDS011;13308;50.860;13.664;2022-12-05T07:30:19;11.30;;;6.60;;
25129;SDS011;13308;50.860;13.664;2022-12-05T07:32:44;10.75;;;6.40;;
25129;SDS011;13308;50.860;13.664;2022-12-05T07:35:09;9.75;;;6.22;;
25129;SDS011;13308;50.860;13.664;2022-12-05T07:37:35;10.63;;;6.47;;
25129;SDS011;13308;50.860;13.664;2022-12-05T07:40:00;9.57;;;6.53;;
25129;SDS011;13308;50.860;13.664;2022-12-05T07:42:25;10.05;;;6.20;;
25129;SDS011;13308;50.860;13.664;2022-12-05T07:44:51;11.93;;;7.20;;
25129;SDS011;13308;50.860;13.664;2022-12-05T07:47:16;9.60;;;7.30;;
25129;SDS011;13308;50.860;13.664;2022-12-05T07:49:41;11.57;;;7.70;;
25129;SDS011;13308;50.860;13.664;2022-12-05T07:52:07;9.25;;;6.50;;
25129;SDS011;13308;50.860;13.664;2022-12-05T07:54:33;8.23;;;6.10;;
25129;SDS011;13308;50.860;13.664;2022-12-05T07:56:58;8.43;;;5.88;;
25129;SDS011;13308;50.860;13.664;2022-12-05T07:59:24;14.32;;;6.50;;
25129;SDS011;13308;50.860;13.664;2022-12-05T08:01:49;10.43;;;6.28;;
25129;SDS011;13308;50.860;13.664;2022-12-05T08:04:14;9.70;;;6.50;;
25129;SDS011;13308;50.860;13.664;2022-12-05T08:06:40;8.65;;;6.43;;
25129;SDS011;13308;50.860;13.664;2022-12-05T08:09:05;9.10;;;6.38;;
25129;SDS011;13308;50.860;13.664;2022-12-05T08:11:31;9.05;;;6.28;;
25129;SDS011;13308;50.860;13.664;2022-12-05T08:14:00;11.40;;;6.93;;
25129;SDS011;13308;50.860;13.664;2022-12-05T08:16:27;10.48;;;6.65;;
25129;SDS011;13308;50.860;13.664;2022-12-05T08:18:54;10.48;;;5.55;;
25129;SDS011;13308;50.860;13.664;2022-12-05T08:21:21;9.68;;;5.43;;
25129;SDS011;13308;50.860;13.664;2022-12-05T08:23:47;10.90;;;5.65;;
25129;SDS011;13308;50.860;13.664;2022-12-05T08:26:13;8.38;;;6.18;;
25129;SDS011;13308;50.860;13.664;2022-12-05T08:28:42;9.43;;;6.07;;
25129;SDS011;13308;50.860;13.664;2022-12-05T08:31:09;8.43;;;5.80;;
25129;SDS011;13308;50.860;13.664;2022-12-05T08:33:45;10.60;;;6.13;;
25129;SDS011;13308;50.860;13.664;2022-12-05T08:36:11;7.43;;;5.75;;
25129;SDS011;13308;50.860;13.664;2022-12-05T08:38:39;7.55;;;5.18;;
25129;SDS011;13308;50.860;13.664;2022-12-05T08:41:06;9.15;;;5.68;;
25129;SDS011;13308;50.860;13.664;2022-12-05T08:43:34;6.25;;;4.80;;
25129;SDS011;13308;50.860;13.664;2022-12-05T08:46:00;8.40;;;5.60;;
25129;SDS011;13308;50.860;13.664;2022-12-05T08:48:26;8.38;;;5.82;;
25129;SDS011;13308;50.860;13.664;2022-12-05T08:50:53;7.72;;;5.50;;
25129;SDS011;13308;50.860;13.664;2022-12-05T08:53:19;8.55;;;5.57;;
25129;SDS011;13308;50.860;13.664;2022-12-05T08:55:44;7.53;;;5.43;;
25129;SDS011;13308;50.860;13.664;2022-12-05T08:58:10;6.90;;;4.88;;
25129;SDS011;13308;50.860;13.664;2022-12-05T09:00:35;6.28;;;4.93;;
25129;SDS011;13308;50.860;13.664;2022-12-05T09:03:01;6.85;;;4.85;;
25129;SDS011;13308;50.860;13.664;2022-12-05T09:05:26;6.15;;;4.53;;
25129;SDS011;13308;50.860;13.664;2022-12-05T09:07:52;7.13;;;4.80;;
25129;SDS011;13308;50.860;13.664;2022-12-05T09:10:17;7.05;;;4.97;;
25129;SDS011;13308;50.860;13.664;2022-12-05T09:12:43;9.38;;;5.80;;
25129;SDS011;13308;50.860;13.664;2022-12-05T09:15:09;7.85;;;5.68;;
25129;SDS011;13308;50.860;13.664;2022-12-05T09:17:36;9.88;;;5.57;;
25129;SDS011;13308;50.860;13.664;2022-12-05T09:20:02;6.47;;;4.72;;
25129;SDS011;13308;50.860;13.664;2022-12-05T09:22:28;8.68;;;5.47;;
25129;SDS011;13308;50.860;13.664;2022-12-05T09:24:54;7.65;;;4.95;;
25129;SDS011;13308;50.860;13.664;2022-12-05T09:27:19;7.78;;;5.32;;
25129;SDS011;13308;50.860;13.664;2022-12-05T09:29:44;7.90;;;5.65;;
25129;SDS011;13308;50.860;13.664;2022-12-05T09:32:10;8.98;;;5.63;;
25129;SDS011;13308;50.860;13.664;2022-12-05T09:34:36;7.90;;;5.75;;
25129;SDS011;13308;50.860;13.664;2022-12-05T09:37:05;8.63;;;6.72;;
25129;SDS011;13308;50.860;13.664;2022-12-05T09:39:32;10.55;;;6.57;;
25129;SDS011;13308;50.860;13.664;2022-12-05T09:47:45;14.23;;;7.38;;
25129;SDS011;13308;50.860;13.664;2022-12-05T09:50:23;14.88;;;8.95;;
25129;SDS011;13308;50.860;13.664;2022-12-05T09:52:58;17.02;;;8.15;;
25129;SDS011;13308;50.860;13.664;2022-12-05T09:55:36;16.55;;;9.23;;
25129;SDS011;13308;50.860;13.664;2022-12-05T10:04:25;19.25;;;8.57;;
25129;SDS011;13308;50.860;13.664;2022-12-05T10:18:02;87.55;;;39.85;;
25129;SDS011;13308;50.860;13.664;2022-12-05T10:20:49;41.50;;;21.17;;
25129;SDS011;13308;50.860;13.664;2022-12-05T10:23:23;35.60;;;20.33;;
25129;SDS011;13308;50.860;13.664;2022-12-05T10:25:58;41.67;;;25.45;;
25129;SDS011;13308;50.860;13.664;2022-12-05T10:28:32;13.23;;;8.45;;
25129;SDS011;13308;50.860;13.664;2022-12-05T10:31:09;22.63;;;15.82;;
25129;SDS011;13308;50.860;13.664;2022-12-05T10:33:39;14.48;;;9.20;;
25129;SDS011;13308;50.860;13.664;2022-12-05T10:36:11;11.15;;;8.43;;
25129;SDS011;13308;50.860;13.664;2022-12-05T10:38:38;20.10;;;11.82;;
25129;SDS011;13308;50.860;13.664;2022-12-05T10:41:09;16.92;;;9.85;;
25129;SDS011;13308;50.860;13.664;2022-12-05T10:43:38;17.35;;;10.82;;
25129;SDS011;13308;50.860;13.664;2022-12-05T10:46:07;17.85;;;12.18;;
25129;SDS011;13308;50.860;13.664;2022-12-05T10:48:35;23.67;;;14.85;;
25129;SDS011;13308;50.860;13.664;2022-12-05T10:51:02;11.88;;;8.02;;
25129;SDS011;13308;50.860;13.664;2022-12-05T10:59:19;14.10;;;9.63;;
25129;SDS011;13308;50.860;13.664;2022-12-05T11:01:54;16.33;;;10.15;;
25129;SDS011;13308;50.860;13.664;2022-12-05T11:04:21;14.60;;;8.55;;
25129;SDS011;13308;50.860;13.664;2022-12-05T11:07:03;15.02;;;9.93;;
25129;SDS011;13308;50.860;13.664;2022-12-05T11:09:33;12.80;;;9.10;;
25129;SDS011;13308;50.860;13.664;2022-12-05T11:14:38;15.32;;;9.98;;
25129;SDS011;13308;50.860;13.664;2022-12-05T11:17:04;22.13;;;11.70;;
25129;SDS011;13308;50.860;13.664;2022-12-05T11:19:33;21.27;;;11.45;;
25129;SDS011;13308;50.860;13.664;2022-12-05T11:22:00;16.30;;;10.75;;
25129;SDS011;13308;50.860;13.664;2022-12-05T11:26:57;14.10;;;8.90;;
25129;SDS011;13308;50.860;13.664;2022-12-05T11:29:53;16.45;;;10.43;;
25129;SDS011;13308;50.860;13.664;2022-12-05T11:32:23;27.27;;;16.50;;
25129;SDS011;13308;50.860;13.664;2022-12-05T11:40:36;14.10;;;8.80;;
25129;SDS011;13308;50.860;13.664;2022-12-05T11:43:19;12.65;;;7.38;;
25129;SDS011;13308;50.860;13.664;2022-12-05T11:49:11;13.93;;;9.27;;
25129;SDS011;13308;50.860;13.664;2022-12-05T11:51:48;8.48;;;6.63;;
25129;SDS011;13308;50.860;13.664;2022-12-05T11:54:31;9.55;;;6.53;;
25129;SDS011;13308;50.860;13.664;2022-12-05T11:59:57;12.30;;;6.97;;
25129;SDS011;13308;50.860;13.664;2022-12-05T12:05:37;9.35;;;6.00;;
25129;SDS011;13308;50.860;13.664;2022-12-05T12:11:05;13.55;;;8.05;;
25129;SDS011;13308;50.860;13.664;2022-12-05T12:16:18;11.85;;;7.72;;
25129;SDS011;13308;50.860;13.664;2022-12-05T12:21:45;11.80;;;6.15;;
25129;SDS011;13308;50.860;13.664;2022-12-05T12:24:32;7.78;;;5.72;;
25129;SDS011;13308;50.860;13.664;2022-12-05T12:32:42;8.77;;;6.60;;
25129;SDS011;13308;50.860;13.664;2022-12-05T12:35:45;9.70;;;5.93;;
25129;SDS011;13308;50.860;13.664;2022-12-05T12:52:29;6.05;;;5.10;;
25129;SDS011;13308;50.860;13.664;2022-12-05T13:03:18;4.78;;;4.28;;
25129;SDS011;13308;50.860;13.664;2022-12-05T13:05:56;7.03;;;4.25;;
25129;SDS011;13308;50.860;13.664;2022-12-05T13:08:33;6.80;;;4.50;;
25129;SDS011;13308;50.860;13.664;2022-12-05T13:10:59;6.35;;;4.53;;
25129;SDS011;13308;50.860;13.664;2022-12-05T13:14:13;6.78;;;4.88;;
25129;SDS011;13308;50.860;13.664;2022-12-05T13:16:23;5.55;;;3.90;;
25129;SDS011;13308;50.860;13.664;2022-12-05T13:18:51;4.95;;;4.18;;
25129;SDS011;13308;50.860;13.664;2022-12-05T13:21:18;5.72;;;4.10;;
25129;SDS011;13308;50.860;13.664;2022-12-05T13:23:48;6.20;;;4.07;;
25129;SDS011;13308;50.860;13.664;2022-12-05T13:26:16;5.35;;;4.28;;
25129;SDS011;13308;50.860;13.664;2022-12-05T13:28:46;5.20;;;4.10;;
25129;SDS011;13308;50.860;13.664;2022-12-05T13:31:34;5.13;;;4.60;;
25129;SDS011;13308;50.860;13.664;2022-12-05T13:34:05;4.03;;;3.58;;
25129;SDS011;13308;50.860;13.664;2022-12-05T13:36:40;4.60;;;3.75;;
25129;SDS011;13308;50.860;13.664;2022-12-05T13:39:24;4.22;;;3.25;;
25129;SDS011;13308;50.860;13.664;2022-12-05T13:42:21;3.80;;;3.38;;
25129;SDS011;13308;50.860;13.664;2022-12-05T13:44:52;4.07;;;2.92;;
25129;SDS011;13308;50.860;13.664;2022-12-05T13:50:35;3.97;;;3.30;;
25129;SDS011;13308;50.860;13.664;2022-12-05T13:53:21;4.53;;;3.58;;
25129;SDS011;13308;50.860;13.664;2022-12-05T13:55:57;3.75;;;3.40;;
25129;SDS011;13308;50.860;13.664;2022-12-05T13:58:48;5.22;;;4.03;;
25129;SDS011;13308;50.860;13.664;2022-12-05T14:06:36;4.53;;;4.13;;
25129;SDS011;13308;50.860;13.664;2022-12-05T14:08:59;4.68;;;4.28;;
25129;SDS011;13308;50.860;13.664;2022-12-05T14:11:28;4.38;;;3.97;;
25129;SDS011;13308;50.860;13.664;2022-12-05T14:13:54;3.95;;;3.53;;
25129;SDS011;13308;50.860;13.664;2022-12-05T14:18:49;5.20;;;4.13;;
25129;SDS011;13308;50.860;13.664;2022-12-05T14:22:04;4.00;;;3.33;;
25129;SDS011;13308;50.860;13.664;2022-12-05T14:27:18;6.20;;;3.97;;
25129;SDS011;13308;50.860;13.664;2022-12-05T14:32:55;5.10;;;4.60;;
25129;SDS011;13308;50.860;13.664;2022-12-05T14:35:41;5.10;;;4.50;;
25129;SDS011;13308;50.860;13.664;2022-12-05T14:38:20;5.85;;;4.25;;
25129;SDS011;13308;50.860;13.664;2022-12-05T14:40:46;4.45;;;3.63;;
25129;SDS011;13308;50.860;13.664;2022-12-05T14:43:19;3.58;;;3.28;;
25129;SDS011;13308;50.860;13.664;2022-12-05T14:50:49;5.00;;;4.50;;
25129;SDS011;13308;50.860;13.664;2022-12-05T14:55:45;6.22;;;4.25;;
25129;SDS011;13308;50.860;13.664;2022-12-05T15:06:41;5.70;;;4.47;;
25129;SDS011;13308;50.860;13.664;2022-12-05T15:09:57;4.38;;;3.97;;
25129;SDS011;13308;50.860;13.664;2022-12-05T15:12:13;4.07;;;3.67;;
25129;SDS011;13308;50.860;13.664;2022-12-05T15:14:49;5.20;;;4.07;;
25129;SDS011;13308;50.860;13.664;2022-12-05T15:17:21;4.18;;;3.75;;
25129;SDS011;13308;50.860;13.664;2022-12-05T15:19:51;3.30;;;3.00;;
25129;SDS011;13308;50.860;13.664;2022-12-05T15:22:22;5.57;;;3.40;;
25129;SDS011;13308;50.860;13.664;2022-12-05T15:24:50;3.80;;;3.40;;
25129;SDS011;13308;50.860;13.664;2022-12-05T15:27:16;4.22;;;3.40;;
25129;SDS011;13308;50.860;13.664;2022-12-05T15:29:41;6.28;;;5.47;;
25129;SDS011;13308;50.860;13.664;2022-12-05T15:34:43;8.65;;;6.72;;
25129;SDS011;13308;50.860;13.664;2022-12-05T15:40:14;20.08;;;7.80;;
25129;SDS011;13308;50.860;13.664;2022-12-05T15:42:43;15.95;;;8.13;;
25129;SDS011;13308;50.860;13.664;2022-12-05T15:45:13;17.90;;;8.80;;
25129;SDS011;13308;50.860;13.664;2022-12-05T15:47:45;15.30;;;8.18;;
25129;SDS011;13308;50.860;13.664;2022-12-05T15:50:15;14.95;;;9.30;;
25129;SDS011;13308;50.860;13.664;2022-12-05T15:52:59;12.93;;;8.88;;
25129;SDS011;13308;50.860;13.664;2022-12-05T15:55:31;11.75;;;8.10;;
25129;SDS011;13308;50.860;13.664;2022-12-05T15:58:07;11.10;;;7.63;;
25129;SDS011;13308;50.860;13.664;2022-12-05T16:00:39;11.95;;;7.57;;
25129;SDS011;13308;50.860;13.664;2022-12-05T16:03:11;9.38;;;7.43;;
25129;SDS011;13308;50.860;13.664;2022-12-05T16:05:45;9.60;;;6.75;;
25129;SDS011;13308;50.860;13.664;2022-12-05T16:08:16;9.68;;;6.60;;
25129;SDS011;13308;50.860;13.664;2022-12-05T16:10:42;9.82;;;6.50;;
25129;SDS011;13308;50.860;13.664;2022-12-05T16:13:11;8.75;;;6.97;;
25129;SDS011;13308;50.860;13.664;2022-12-05T16:15:41;9.40;;;7.25;;
25129;SDS011;13308;50.860;13.664;2022-12-05T16:18:18;10.60;;;7.95;;
25129;SDS011;13308;50.860;13.664;2022-12-05T16:20:48;7.45;;;6.63;;
25129;SDS011;13308;50.860;13.664;2022-12-05T16:23:22;11.32;;;8.65;;
25129;SDS011;13308;50.860;13.664;2022-12-05T16:26:08;9.88;;;8.07;;
25129;SDS011;13308;50.860;13.664;2022-12-05T16:28:55;11.25;;;8.00;;
25129;SDS011;13308;50.860;13.664;2022-12-05T16:31:21;12.05;;;8.15;;
25129;SDS011;13308;50.860;13.664;2022-12-05T16:33:47;13.48;;;8.25;;
25129;SDS011;13308;50.860;13.664;2022-12-05T16:36:22;12.52;;;7.50;;
25129;SDS011;13308;50.860;13.664;2022-12-05T16:38:47;9.45;;;7.45;;
25129;SDS011;13308;50.860;13.664;2022-12-05T16:41:13;10.40;;;7.30;;
25129;SDS011;13308;50.860;13.664;2022-12-05T16:43:42;9.60;;;7.07;;
25129;SDS011;13308;50.860;13.664;2022-12-05T16:48:34;11.93;;;7.75;;
25129;SDS011;13308;50.860;13.664;2022-12-05T16:53:38;9.77;;;7.20;;
25129;SDS011;13308;50.860;13.664;2022-12-05T16:56:22;10.43;;;7.90;;
25129;SDS011;13308;50.860;13.664;2022-12-05T16:58:50;10.32;;;7.82;;
25129;SDS011;13308;50.860;13.664;2022-12-05T17:01:17;11.75;;;7.80;;
25129;SDS011;13308;50.860;13.664;2022-12-05T17:03:44;12.88;;;7.72;;
25129;SDS011;13308;50.860;13.664;2022-12-05T17:06:10;11.85;;;8.38;;
25129;SDS011;13308;50.860;13.664;2022-12-05T17:08:36;11.13;;;8.20;;
25129;SDS011;13308;50.860;13.664;2022-12-05T17:11:01;10.20;;;7.30;;
25129;SDS011;13308;50.860;13.664;2022-12-05T17:13:28;11.07;;;8.15;;
25129;SDS011;13308;50.860;13.664;2022-12-05T17:15:55;11.88;;;8.13;;
25129;SDS011;13308;50.860;13.664;2022-12-05T17:18:21;11.15;;;7.93;;
25129;SDS011;13308;50.860;13.664;2022-12-05T17:20:47;11.63;;;8.18;;
25129;SDS011;13308;50.860;13.664;2022-12-05T17:23:15;12.45;;;8.13;;
25129;SDS011;13308;50.860;13.664;2022-12-05T17:25:43;11.98;;;8.10;;
25129;SDS011;13308;50.860;13.664;2022-12-05T17:28:12;12.50;;;8.07;;
25129;SDS011;13308;50.860;13.664;2022-12-05T17:30:37;12.55;;;8.23;;
25129;SDS011;13308;50.860;13.664;2022-12-05T17:33:03;15.00;;;7.50;;
25129;SDS011;13308;50.860;13.664;2022-12-05T17:35:29;10.15;;;7.68;;
25129;SDS011;13308;50.860;13.664;2022-12-05T17:37:55;12.52;;;8.38;;
25129;SDS011;13308;50.860;13.664;2022-12-05T17:40:21;15.23;;;8.73;;
25129;SDS011;13308;50.860;13.664;2022-12-05T17:42:46;11.57;;;9.23;;
25129;SDS011;13308;50.860;13.664;2022-12-05T17:45:13;13.35;;;8.60;;
25129;SDS011;13308;50.860;13.664;2022-12-05T17:47:40;13.25;;;8.20;;
25129;SDS011;13308;50.860;13.664;2022-12-05T17:50:06;16.42;;;9.07;;
25129;SDS011;13308;50.860;13.664;2022-12-05T17:52:40;9.93;;;7.97;;
25129;SDS011;13308;50.860;13.664;2022-12-05T17:55:06;11.90;;;8.43;;
25129;SDS011;13308;50.860;13.664;2022-12-05T17:57:40;11.55;;;8.65;;
25129;SDS011;13308;50.860;13.664;2022-12-05T18:00:05;9.30;;;7.47;;
25129;SDS011;13308;50.860;13.664;2022-12-05T18:02:32;14.45;;;8.70;;
25129;SDS011;13308;50.860;13.664;2022-12-05T18:04:58;10.85;;;8.15;;
25129;SDS011;13308;50.860;13.664;2022-12-05T18:07:23;10.65;;;8.07;;
25129;SDS011;13308;50.860;13.664;2022-12-05T18:09:48;10.20;;;7.60;;
25129;SDS011;13308;50.860;13.664;2022-12-05T18:12:14;13.02;;;8.80;;
25129;SDS011;13308;50.860;13.664;2022-12-05T18:14:39;13.75;;;8.85;;
25129;SDS011;13308;50.860;13.664;2022-12-05T18:17:04;16.23;;;9.88;;
25129;SDS011;13308;50.860;13.664;2022-12-05T18:19:30;17.38;;;9.55;;
25129;SDS011;13308;50.860;13.664;2022-12-05T18:21:55;14.73;;;9.68;;
25129;SDS011;13308;50.860;13.664;2022-12-05T18:24:20;18.17;;;10.55;;
25129;SDS011;13308;50.860;13.664;2022-12-05T18:26:46;14.65;;;10.05;;
25129;SDS011;13308;50.860;13.664;2022-12-05T18:29:11;23.33;;;13.00;;
25129;SDS011;13308;50.860;13.664;2022-12-05T18:31:37;21.55;;;12.07;;
25129;SDS011;13308;50.860;13.664;2022-12-05T18:34:05;22.08;;;12.52;;
25129;SDS011;13308;50.860;13.664;2022-12-05T18:36:31;23.60;;;11.80;;
25129;SDS011;13308;50.860;13.664;2022-12-05T18:38:56;23.20;;;11.50;;
25129;SDS011;13308;50.860;13.664;2022-12-05T18:41:22;23.15;;;12.60;;
25129;SDS011;13308;50.860;13.664;2022-12-05T18:43:49;18.25;;;10.32;;
25129;SDS011;13308;50.860;13.664;2022-12-05T18:46:15;17.90;;;10.77;;
25129;SDS011;13308;50.860;13.664;2022-12-05T18:48:40;16.10;;;10.50;;
25129;SDS011;13308;50.860;13.664;2022-12-05T18:51:09;14.73;;;9.23;;
25129;SDS011;13308;50.860;13.664;2022-12-05T18:53:39;14.40;;;9.60;;
25129;SDS011;13308;50.860;13.664;2022-12-05T18:56:05;15.52;;;8.93;;
25129;SDS011;13308;50.860;13.664;2022-12-05T18:58:33;21.88;;;9.77;;
25129;SDS011;13308;50.860;13.664;2022-12-05T19:01:08;14.15;;;9.48;;
25129;SDS011;13308;50.860;13.664;2022-12-05T19:03:36;17.27;;;9.57;;
25129;SDS011;13308;50.860;13.664;2022-12-05T19:06:09;17.77;;;10.95;;
25129;SDS011;13308;50.860;13.664;2022-12-05T19:08:36;17.80;;;10.32;;
25129;SDS011;13308;50.860;13.664;2022-12-05T19:11:05;12.73;;;9.02;;
25129;SDS011;13308;50.860;13.664;2022-12-05T19:13:30;14.40;;;9.85;;
25129;SDS011;13308;50.860;13.664;2022-12-05T19:16:06;15.30;;;9.68;;
25129;SDS011;13308;50.860;13.664;2022-12-05T19:18:33;12.35;;;8.40;;
25129;SDS011;13308;50.860;13.664;2022-12-05T19:20:58;12.43;;;8.50;;
25129;SDS011;13308;50.860;13.664;2022-12-05T19:23:24;14.60;;;9.23;;
25129;SDS011;13308;50.860;13.664;2022-12-05T19:25:59;14.88;;;8.70;;
25129;SDS011;13308;50.860;13.664;2022-12-05T19:28:26;11.15;;;7.97;;
